Time;durP1;ratioP1;P1;durP2;ratioP2;P2;SDS_P1;SDS_P2;PMS_P1;PMS_P2;Temp;Humidity;BMP_temperature;BMP_pressure;BME280_temperature;BME280_humidity;BME280_pressure;Samples;Min_cycle;Max_cycle;Signal;HPM_P1;HPM_P2
2022/12/26 00:02:29;;;;;;;9.05;1.58;;;;;;;;;;5090285;28;20057;-75
2022/12/26 00:05:00;;;;;;;7.70;1.88;;;;;;;;;;5090190;28;20048;-75
2022/12/26 00:07:30;;;;;;;10.07;2.20;;;;;;;;;;5089896;28;20056;-75
2022/12/26 00:10:00;;;;;;;8.77;1.63;;;;;;;;;;5090183;28;20048;-75
2022/12/26 00:12:30;;;;;;;14.27;2.40;;;;;;;;;;5090053;28;20502;-74
2022/12/26 00:15:01;;;;;;;19.27;5.07;;;;;;;;;;5070246;28;20059;-74
2022/12/26 00:17:31;;;;;;;21.13;6.00;;;;;;;;;;5089390;28;20048;-75
2022/12/26 00:20:01;;;;;;;27.33;7.90;;;;;;;;;;5090301;28;20411;-74
2022/12/26 00:22:30;;;;;;;34.40;9.88;;;;;;;;;;5089470;28;20426;-74
2022/12/26 00:25:02;;;;;;;37.45;10.48;;;;;;;;;;5071199;28;20059;-73
2022/12/26 00:27:33;;;;;;;23.50;6.70;;;;;;;;;;5089350;28;20059;-74
2022/12/26 00:30:04;;;;;;;11.32;3.35;;;;;;;;;;5089826;28;20056;-74
2022/12/26 00:32:34;;;;;;;13.55;3.15;;;;;;;;;;5089222;28;20052;-75
2022/12/26 00:35:04;;;;;;;9.52;2.53;;;;;;;;;;5089832;28;20651;-74
2022/12/26 00:37:34;;;;;;;17.00;2.60;;;;;;;;;;5089360;28;20032;-74
2022/12/26 00:40:06;;;;;;;10.75;2.40;;;;;;;;;;5088821;28;20052;-74
2022/12/26 00:42:38;;;;;;;10.82;2.40;;;;;;;;;;5089757;28;20047;-74
2022/12/26 00:45:09;;;;;;;8.73;2.95;;;;;;;;;;5089396;28;20047;-75
2022/12/26 00:47:39;;;;;;;11.65;1.85;;;;;;;;;;5087543;28;20541;-75
2022/12/26 00:50:09;;;;;;;11.43;2.38;;;;;;;;;;5089590;28;20047;-74
2022/12/26 00:52:44;;;;;;;8.50;1.98;;;;;;;;;;5089158;28;20052;-74
2022/12/26 00:55:14;;;;;;;9.65;1.80;;;;;;;;;;5089020;28;20048;-74
2022/12/26 00:57:45;;;;;;;9.07;2.00;;;;;;;;;;5087737;28;20067;-74
2022/12/26 01:00:15;;;;;;;7.15;1.75;;;;;;;;;;5070996;28;20414;-75
2022/12/26 01:02:46;;;;;;;8.85;2.65;;;;;;;;;;5088896;28;20044;-75
2022/12/26 01:05:17;;;;;;;11.63;1.58;;;;;;;;;;5088196;28;20515;-74
2022/12/26 01:07:55;;;;;;;10.68;2.28;;;;;;;;;;5072085;28;20048;-74
2022/12/26 01:10:47;;;;;;;9.85;2.15;;;;;;;;;;5089178;28;20043;-74
2022/12/26 01:13:18;;;;;;;8.60;2.03;;;;;;;;;;5088905;28;20522;-75
2022/12/26 01:15:52;;;;;;;11.80;2.20;;;;;;;;;;5088339;28;20051;-74
2022/12/26 01:18:26;;;;;;;14.07;2.53;;;;;;;;;;5087855;28;20163;-75
2022/12/26 01:21:08;;;;;;;10.63;1.98;;;;;;;;;;5088650;28;20115;-74
2022/12/26 01:23:38;;;;;;;9.57;1.98;;;;;;;;;;5087748;28;20063;-74
2022/12/26 01:26:08;;;;;;;9.43;2.30;;;;;;;;;;5087837;28;20044;-74
2022/12/26 01:28:51;;;;;;;11.32;2.58;;;;;;;;;;5088700;28;20040;-74
2022/12/26 01:31:22;;;;;;;11.45;2.08;;;;;;;;;;5070777;28;20055;-74
2022/12/26 01:33:53;;;;;;;14.05;2.63;;;;;;;;;;5088138;28;20044;-74
2022/12/26 01:36:23;;;;;;;8.10;2.08;;;;;;;;;;5088495;28;20036;-74
2022/12/26 01:38:55;;;;;;;5.03;2.00;;;;;;;;;;5088105;28;20052;-74
2022/12/26 01:41:26;;;;;;;6.78;2.05;;;;;;;;;;5088059;28;20036;-74
2022/12/26 01:44:04;;;;;;;7.68;2.45;;;;;;;;;;5087163;28;20055;-73
2022/12/26 01:46:39;;;;;;;9.43;1.83;;;;;;;;;;5086068;28;20052;-74
2022/12/26 01:49:34;;;;;;;9.60;2.28;;;;;;;;;;5086657;28;20055;-74
2022/12/26 01:52:11;;;;;;;14.13;2.53;;;;;;;;;;5086865;28;20066;-73
2022/12/26 01:54:46;;;;;;;7.65;2.22;;;;;;;;;;5087302;28;20051;-77
2022/12/26 01:57:18;;;;;;;;;;;;;;;;;;5087911;28;20047;-73
2022/12/26 01:59:50;;;;;;;9.05;2.35;;;;;;;;;;5088126;28;19920;-73
2022/12/26 02:02:21;;;;;;;9.52;2.50;;;;;;;;;;5087584;28;20051;-73
2022/12/26 02:07:45;;;;;;;9.60;2.60;;;;;;;;;;5088019;28;20067;-73
2022/12/26 02:10:21;;;;;;;12.00;2.67;;;;;;;;;;5068930;28;20391;-73
2022/12/26 02:12:52;;;;;;;9.98;1.90;;;;;;;;;;5087865;28;20066;-73
2022/12/26 02:15:22;;;;;;;7.28;2.10;;;;;;;;;;5087319;28;20048;-73
2022/12/26 02:17:53;;;;;;;9.23;2.92;;;;;;;;;;5087709;28;20418;-73
2022/12/26 02:20:29;;;;;;;9.45;1.95;;;;;;;;;;5087444;28;20048;-73
2022/12/26 02:23:41;;;;;;;14.18;2.70;;;;;;;;;;5088052;28;20052;-73
2022/12/26 02:26:21;;;;;;;11.77;2.28;;;;;;;;;;5004978;28;20050;-73
2022/12/26 02:29:18;;;;;;;9.23;2.33;;;;;;;;;;5005417;28;20057;-74
2022/12/26 02:32:11;;;;;;;11.82;2.92;;;;;;;;;;5069202;28;20060;-73
2022/12/26 02:35:20;;;;;;;12.52;2.30;;;;;;;;;;5086982;28;20048;-74
2022/12/26 02:38:05;;;;;;;7.95;2.17;;;;;;;;;;5038332;28;20052;-74
2022/12/26 02:40:50;;;;;;;4.32;1.65;;;;;;;;;;5086891;28;20044;-73
2022/12/26 02:43:39;;;;;;;8.98;2.13;;;;;;;;;;5087274;28;20063;-73
2022/12/26 02:49:10;;;;;;;16.73;3.05;;;;;;;;;;5087151;28;20355;-73
2022/12/26 03:13:10;;;;;;;10.77;2.63;;;;;;;;;;5086675;28;20895;-76
2022/12/26 03:19:06;;;;;;;15.95;2.35;;;;;;;;;;5086949;28;20087;-73
2022/12/26 03:21:41;;;;;;;10.57;2.30;;;;;;;;;;5086128;28;20039;-73
2022/12/26 03:24:16;;;;;;;5.25;2.30;;;;;;;;;;5086502;28;20527;-73
2022/12/26 03:26:52;;;;;;;7.90;2.25;;;;;;;;;;5086395;28;20047;-73
2022/12/26 03:32:13;;;;;;;5.43;1.83;;;;;;;;;;5086713;28;20757;-73
2022/12/26 03:34:44;;;;;;;8.48;2.95;;;;;;;;;;5086159;28;20463;-73
2022/12/26 03:37:30;;;;;;;8.65;2.50;;;;;;;;;;5086439;28;20040;-73
2022/12/26 04:19:27;;;;;;;11.05;2.60;;;;;;;;;;5086454;28;20106;-73
2022/12/26 04:46:18;;;;;;;13.13;2.40;;;;;;;;;;5089551;28;20048;-73
2022/12/26 04:51:41;;;;;;;9.20;2.13;;;;;;;;;;5089329;28;20499;-74
2022/12/26 04:54:11;;;;;;;8.02;2.40;;;;;;;;;;5089021;28;20479;-73
2022/12/26 04:56:42;;;;;;;15.60;2.75;;;;;;;;;;5071370;28;20747;-73
2022/12/26 04:59:14;;;;;;;9.80;2.67;;;;;;;;;;5088206;28;20067;-73
2022/12/26 05:10:29;;;;;;;8.18;2.13;;;;;;;;;;5088874;28;20048;-73
2022/12/26 05:12:59;;;;;;;10.05;2.30;;;;;;;;;;5069548;28;20079;-73
2022/12/26 05:28:40;;;;;;;15.30;3.10;;;;;;;;;;5089161;28;20376;-73
2022/12/26 05:29:40;;;;;;;9.68;2.13;;;;;;;;;;5087927;28;20040;-73
2022/12/26 05:32:11;;;;;;;11.05;2.20;;;;;;;;;;5088739;28;20495;-73
2022/12/26 05:34:42;;;;;;;9.68;1.73;;;;;;;;;;5087949;28;20044;-73
2022/12/26 05:37:12;;;;;;;10.65;2.15;;;;;;;;;;5088145;28;20067;-73
2022/12/26 05:39:42;;;;;;;6.57;2.67;;;;;;;;;;5087885;28;20044;-73
2022/12/26 05:42:13;;;;;;;5.82;1.90;;;;;;;;;;5087821;28;20052;-73
2022/12/26 05:44:46;;;;;;;9.82;1.55;;;;;;;;;;5070581;28;20043;-73
2022/12/26 05:47:16;;;;;;;8.63;2.03;;;;;;;;;;5088099;28;20051;-73
2022/12/26 05:49:46;;;;;;;9.55;2.95;;;;;;;;;;5087920;28;20499;-73
2022/12/26 05:52:17;;;;;;;8.23;1.73;;;;;;;;;;5088303;28;20410;-73
2022/12/26 05:54:47;;;;;;;11.55;1.70;;;;;;;;;;5088386;28;20052;-73
2022/12/26 05:57:18;;;;;;;8.88;1.63;;;;;;;;;;5088127;28;20403;-73
2022/12/26 05:59:48;;;;;;;11.40;1.90;;;;;;;;;;5087650;28;20056;-73
2022/12/26 06:02:18;;;;;;;8.70;1.85;;;;;;;;;;5087855;28;20438;-73
2022/12/26 06:04:49;;;;;;;10.57;2.80;;;;;;;;;;5088306;28;20434;-73
2022/12/26 06:07:20;;;;;;;5.93;1.75;;;;;;;;;;5088009;28;20055;-73
2022/12/26 06:09:49;;;;;;;11.75;1.95;;;;;;;;;;5087663;28;20055;-73
2022/12/26 06:12:20;;;;;;;5.80;1.67;;;;;;;;;;5087893;28;20048;-73
2022/12/26 06:14:50;;;;;;;9.57;2.15;;;;;;;;;;5087462;28;20418;-73
2022/12/26 06:17:21;;;;;;;5.72;1.73;;;;;;;;;;5087775;28;20055;-73
2022/12/26 06:19:51;;;;;;;5.90;1.52;;;;;;;;;;5088288;28;20055;-73
2022/12/26 06:22:21;;;;;;;5.97;1.88;;;;;;;;;;5087650;28;20043;-73
2022/12/26 06:24:51;;;;;;;7.95;1.73;;;;;;;;;;5087561;28;20048;-73
2022/12/26 06:27:21;;;;;;;9.88;1.90;;;;;;;;;;5087237;28;20691;-73
2022/12/26 06:29:52;;;;;;;6.88;1.80;;;;;;;;;;5087231;28;20044;-73
2022/12/26 06:32:23;;;;;;;3.92;1.48;;;;;;;;;;5087227;28;20059;-73
2022/12/26 06:34:53;;;;;;;7.88;1.95;;;;;;;;;;5087234;28;20051;-73
2022/12/26 06:37:24;;;;;;;5.72;1.90;;;;;;;;;;5087239;28;20051;-73
2022/12/26 06:39:54;;;;;;;5.43;1.73;;;;;;;;;;5087200;28;20043;-73
2022/12/26 06:42:25;;;;;;;7.68;1.85;;;;;;;;;;5087920;28;20032;-73
2022/12/26 06:44:56;;;;;;;7.28;1.60;;;;;;;;;;5087135;28;20110;-73
2022/12/26 06:47:26;;;;;;;7.13;1.98;;;;;;;;;;5087323;28;20047;-73
2022/12/26 06:49:56;;;;;;;5.15;2.17;;;;;;;;;;5086242;28;20529;-73
2022/12/26 06:52:27;;;;;;;9.63;1.90;;;;;;;;;;5068205;28;20052;-73
2022/12/26 06:54:58;;;;;;;7.78;2.40;;;;;;;;;;5085964;28;20063;-73
2022/12/26 06:57:27;;;;;;;7.30;2.17;;;;;;;;;;5086684;28;20044;-73
2022/12/26 06:59:58;;;;;;;6.00;1.90;;;;;;;;;;5087271;28;20447;-73
2022/12/26 07:02:28;;;;;;;7.63;1.55;;;;;;;;;;5086649;28;20044;-73
2022/12/26 07:04:58;;;;;;;10.27;1.90;;;;;;;;;;5086760;28;20056;-73
2022/12/26 07:07:29;;;;;;;8.52;1.85;;;;;;;;;;5087080;28;20058;-73
2022/12/26 07:09:59;;;;;;;7.63;1.73;;;;;;;;;;5068016;28;20066;-73
2022/12/26 07:12:33;;;;;;;7.75;1.67;;;;;;;;;;5087115;28;20051;-73
2022/12/26 07:15:04;;;;;;;11.25;1.80;;;;;;;;;;5086608;28;20044;-73
2022/12/26 07:17:34;;;;;;;10.82;1.52;;;;;;;;;;5086116;28;20491;-73
2022/12/26 07:20:06;;;;;;;5.25;1.58;;;;;;;;;;5067495;28;20052;-73
2022/12/26 07:22:37;;;;;;;7.43;1.55;;;;;;;;;;5086470;28;20052;-73
2022/12/26 07:25:07;;;;;;;8.13;1.55;;;;;;;;;;5086481;28;20501;-73
2022/12/26 07:27:38;;;;;;;8.93;2.10;;;;;;;;;;5084850;28;20052;-73
2022/12/26 07:30:09;;;;;;;4.28;1.40;;;;;;;;;;5087050;28;20048;-73
2022/12/26 07:32:41;;;;;;;7.70;1.70;;;;;;;;;;5068079;28;20056;-73
2022/12/26 07:35:11;;;;;;;6.15;1.30;;;;;;;;;;5086707;28;20052;-73
2022/12/26 07:37:42;;;;;;;7.75;1.38;;;;;;;;;;5086493;28;20047;-73
2022/12/26 07:40:13;;;;;;;7.15;1.95;;;;;;;;;;5086563;28;20051;-73
2022/12/26 07:42:44;;;;;;;10.48;1.65;;;;;;;;;;5087074;28;20052;-73
2022/12/26 07:45:14;;;;;;;11.70;1.83;;;;;;;;;;5086937;28;20506;-73
2022/12/26 07:47:44;;;;;;;8.45;1.42;;;;;;;;;;5068433;28;20597;-73
2022/12/26 07:50:15;;;;;;;6.97;1.58;;;;;;;;;;5086441;28;20047;-73
2022/12/26 07:52:45;;;;;;;9.02;1.65;;;;;;;;;;5086624;28;20037;-73
2022/12/26 07:55:16;;;;;;;8.35;1.88;;;;;;;;;;5086556;28;20051;-73
2022/12/26 07:57:51;;;;;;;10.88;1.98;;;;;;;;;;5086089;28;20051;-73
2022/12/26 08:00:21;;;;;;;12.63;1.52;;;;;;;;;;5086801;28;20052;-73
2022/12/26 08:02:52;;;;;;;5.72;1.52;;;;;;;;;;5085922;28;20047;-73
2022/12/26 08:05:23;;;;;;;6.38;2.22;;;;;;;;;;5086487;28;20040;-73
2022/12/26 08:07:53;;;;;;;12.20;1.70;;;;;;;;;;5069586;28;20525;-73
2022/12/26 08:10:23;;;;;;;8.05;1.60;;;;;;;;;;5090291;28;20047;-73
2022/12/26 08:12:53;;;;;;;9.32;2.08;;;;;;;;;;5090228;28;20403;-73
2022/12/26 08:15:23;;;;;;;8.30;1.45;;;;;;;;;;5090352;28;20048;-73
2022/12/26 08:17:54;;;;;;;8.43;1.70;;;;;;;;;;5090309;28;20051;-73
2022/12/26 08:20:24;;;;;;;6.93;1.30;;;;;;;;;;5089469;28;20036;-73
2022/12/26 08:22:54;;;;;;;8.63;1.70;;;;;;;;;;5089774;28;20036;-73
2022/12/26 08:25:26;;;;;;;10.73;1.80;;;;;;;;;;5089831;28;20047;-73
2022/12/26 08:27:59;;;;;;;9.55;1.52;;;;;;;;;;5089673;28;20055;-73
2022/12/26 08:30:29;;;;;;;6.18;1.98;;;;;;;;;;5089470;28;20535;-73
2022/12/26 08:32:59;;;;;;;11.57;1.60;;;;;;;;;;5088585;28;20059;-73
2022/12/26 08:35:29;;;;;;;7.78;1.35;;;;;;;;;;5089435;28;20044;-73
2022/12/26 08:38:00;;;;;;;9.88;1.98;;;;;;;;;;5090204;28;20502;-73
2022/12/26 08:40:31;;;;;;;7.40;1.80;;;;;;;;;;5090321;28;20422;-73
2022/12/26 08:43:12;;;;;;;6.88;1.67;;;;;;;;;;5089564;28;20059;-74
2022/12/26 08:46:06;;;;;;;6.32;2.03;;;;;;;;;;5089187;28;20040;-74
2022/12/26 08:48:39;;;;;;;11.02;2.10;;;;;;;;;;5089693;28;20052;-73
2022/12/26 08:51:15;;;;;;;6.13;1.70;;;;;;;;;;5088728;28;20048;-74
2022/12/26 08:53:48;;;;;;;8.00;1.58;;;;;;;;;;5088873;28;20549;-74
2022/12/26 08:56:24;;;;;;;9.40;1.92;;;;;;;;;;5070625;28;20056;-74
2022/12/26 08:58:55;;;;;;;8.73;1.38;;;;;;;;;;5071210;28;20048;-74
2022/12/26 09:01:30;;;;;;;13.35;1.88;;;;;;;;;;5089186;28;20044;-74
2022/12/26 09:04:03;;;;;;;8.80;1.63;;;;;;;;;;5070649;28;20051;-74
2022/12/26 09:06:36;;;;;;;7.95;1.90;;;;;;;;;;5088432;28;20460;-74
2022/12/26 09:09:10;;;;;;;5.32;1.40;;;;;;;;;;5069986;28;20507;-74
2022/12/26 09:11:42;;;;;;;9.25;1.50;;;;;;;;;;5088673;28;20051;-74
2022/12/26 09:14:13;;;;;;;7.60;2.08;;;;;;;;;;5088552;28;20040;-74
2022/12/26 09:16:45;;;;;;;7.55;1.55;;;;;;;;;;5088359;28;20490;-74
2022/12/26 09:19:20;;;;;;;7.38;2.67;;;;;;;;;;5088108;28;20048;-74
2022/12/26 09:22:49;;;;;;;9.35;1.58;;;;;;;;;;5071131;28;20063;-74
2022/12/26 09:24:44;;;;;;;8.80;1.60;;;;;;;;;;5088676;28;20039;-73
2022/12/26 09:27:14;;;;;;;6.97;1.30;;;;;;;;;;5088907;28;20498;-73
2022/12/26 09:29:44;;;;;;;5.85;1.35;;;;;;;;;;5070936;28;20051;-73
2022/12/26 09:32:16;;;;;;;7.18;1.77;;;;;;;;;;5088769;28;20059;-74
2022/12/26 09:34:48;;;;;;;8.32;1.85;;;;;;;;;;5088204;28;20156;-74
2022/12/26 09:37:19;;;;;;;8.77;1.60;;;;;;;;;;5088200;28;20052;-79
2022/12/26 09:39:50;;;;;;;8.32;2.08;;;;;;;;;;5088148;28;20043;-73
2022/12/26 09:42:38;;;;;;;8.70;1.13;;;;;;;;;;5088872;28;20055;-74
2022/12/26 09:45:15;;;;;;;10.68;1.80;;;;;;;;;;5087800;28;20043;-73
2022/12/26 09:48:01;;;;;;;7.38;1.60;;;;;;;;;;5087908;28;20056;-73
2022/12/26 09:50:38;;;;;;;6.00;1.42;;;;;;;;;;5088782;28;20052;-74
2022/12/26 09:53:35;;;;;;;9.05;1.50;;;;;;;;;;5087428;28;20055;-73
2022/12/26 09:56:11;;;;;;;8.23;1.52;;;;;;;;;;5087951;28;20055;-76
2022/12/26 09:59:10;;;;;;;7.57;1.10;;;;;;;;;;5088245;28;20402;-73
2022/12/26 10:01:41;;;;;;;9.27;1.45;;;;;;;;;;5088285;28;20070;-74
2022/12/26 10:04:25;;;;;;;14.40;1.83;;;;;;;;;;5088341;28;20055;-74
2022/12/26 10:07:04;;;;;;;5.05;1.20;;;;;;;;;;5087144;28;20059;-74
2022/12/26 10:10:11;;;;;;;3.53;1.15;;;;;;;;;;5087844;28;20048;-73
2022/12/26 10:12:57;;;;;;;7.90;1.55;;;;;;;;;;5085128;28;20064;-73
2022/12/26 10:15:45;;;;;;;6.57;1.30;;;;;;;;;;5087587;28;20075;-80
2022/12/26 10:18:38;;;;;;;5.25;1.23;;;;;;;;;;5069223;28;20519;-74
2022/12/26 10:21:44;;;;;;;2.85;0.90;;;;;;;;;;5087051;28;20067;-74
2022/12/26 10:24:19;;;;;;;7.63;1.30;;;;;;;;;;5087121;28;20076;-74
2022/12/26 10:27:02;;;;;;;7.25;1.35;;;;;;;;;;5088066;28;20063;-76
2022/12/26 10:29:42;;;;;;;6.80;1.23;;;;;;;;;;5087375;28;20495;-73
2022/12/26 10:32:29;;;;;;;4.55;1.27;;;;;;;;;;5087442;28;20052;-72
2022/12/26 10:35:32;;;;;;;6.07;1.05;;;;;;;;;;5073512;28;20048;-74
2022/12/26 10:38:10;;;;;;;8.25;1.13;;;;;;;;;;5087620;28;20513;-74
2022/12/26 10:40:46;;;;;;;5.10;1.20;;;;;;;;;;5086629;28;20048;-74
2022/12/26 10:43:32;;;;;;;4.25;1.08;;;;;;;;;;5087535;28;20491;-74
2022/12/26 10:46:41;;;;;;;10.25;1.40;;;;;;;;;;5087018;28;20052;-76
2022/12/26 10:49:12;;;;;;;4.13;0.95;;;;;;;;;;5087355;28;20051;-74
2022/12/26 10:51:44;;;;;;;4.57;1.58;;;;;;;;;;5086966;28;20044;-75
2022/12/26 10:54:17;;;;;;;6.82;1.58;;;;;;;;;;5086980;28;20039;-73
2022/12/26 10:56:50;;;;;;;6.90;1.52;;;;;;;;;;5085917;28;20051;-73
2022/12/26 10:59:26;;;;;;;5.82;1.40;;;;;;;;;;5086629;28;20050;-76
2022/12/26 11:02:22;;;;;;;4.68;1.35;;;;;;;;;;5086893;28;20063;-73
2022/12/26 11:05:22;;;;;;;4.63;1.20;;;;;;;;;;5086488;28;20434;-74
2022/12/26 11:08:31;;;;;;;7.78;1.10;;;;;;;;;;5087155;28;20056;-74
2022/12/26 11:11:23;;;;;;;4.53;0.80;;;;;;;;;;5087008;28;20608;-73
2022/12/26 11:14:02;;;;;;;1.95;0.73;;;;;;;;;;5068698;28;20131;-73
2022/12/26 11:16:36;;;;;;;4.63;1.10;;;;;;;;;;5086558;28;20063;-74
2022/12/26 11:19:25;;;;;;;2.13;0.80;;;;;;;;;;5086819;28;20048;-73
2022/12/26 11:22:27;;;;;;;10.32;1.40;;;;;;;;;;5086867;28;20048;-74
2022/12/26 11:25:11;;;;;;;3.20;0.90;;;;;;;;;;5086568;28;20044;-75
2022/12/26 11:27:47;;;;;;;4.15;1.00;;;;;;;;;;5086621;28;20384;-74
2022/12/26 11:30:21;;;;;;;3.88;1.45;;;;;;;;;;5086803;28;20043;-73
2022/12/26 11:33:36;;;;;;;2.53;0.68;;;;;;;;;;5086979;28;20375;-74
2022/12/26 11:36:16;;;;;;;3.95;1.10;;;;;;;;;;5071931;28;20064;-74
2022/12/26 11:38:48;;;;;;;2.85;0.80;;;;;;;;;;5086217;28;20051;-74
2022/12/26 11:41:30;;;;;;;8.70;0.90;;;;;;;;;;5086106;28;20048;-75
2022/12/26 11:44:04;;;;;;;4.25;0.95;;;;;;;;;;5090357;28;20048;-75
2022/12/26 11:46:56;;;;;;;3.10;0.82;;;;;;;;;;5090376;28;20051;-74
2022/12/26 11:49:48;;;;;;;3.25;1.20;;;;;;;;;;5090828;28;20044;-74
2022/12/26 11:52:40;;;;;;;4.20;1.00;;;;;;;;;;5090329;28;20110;-76
2022/12/26 11:55:31;;;;;;;2.00;0.88;;;;;;;;;;5090050;28;20040;-75
2022/12/26 11:58:06;;;;;;;4.10;0.90;;;;;;;;;;5090691;28;20526;-74
2022/12/26 12:00:42;;;;;;;4.18;1.02;;;;;;;;;;5072746;28;20051;-74
2022/12/26 12:03:17;;;;;;;4.18;0.80;;;;;;;;;;5090500;28;20052;-74
2022/12/26 12:06:01;;;;;;;2.70;0.50;;;;;;;;;;5089825;28;20059;-74
2022/12/26 12:08:38;;;;;;;1.63;0.80;;;;;;;;;;5050071;28;20067;-75
2022/12/26 12:11:25;;;;;;;2.50;0.70;;;;;;;;;;5049975;28;20056;-74
2022/12/26 12:14:14;;;;;;;3.67;1.65;;;;;;;;;;5049241;28;20056;-73
2022/12/26 12:16:56;;;;;;;1.95;0.80;;;;;;;;;;5049979;28;20472;-75
2022/12/26 12:19:51;;;;;;;8.43;1.70;;;;;;;;;;5049449;28;20063;-75
2022/12/26 12:22:58;;;;;;;4.50;1.05;;;;;;;;;;5049295;28;20053;-75
2022/12/26 12:25:51;;;;;;;3.95;1.23;;;;;;;;;;5049370;28;21075;-75
2022/12/26 12:28:59;;;;;;;6.28;1.48;;;;;;;;;;5048731;28;20041;-75
2022/12/26 12:32:06;;;;;;;2.85;0.90;;;;;;;;;;5049230;28;20049;-75
2022/12/26 12:35:02;;;;;;;5.90;1.20;;;;;;;;;;5049097;28;20527;-75
2022/12/26 12:37:52;;;;;;;3.72;1.35;;;;;;;;;;5049344;28;20056;-77
2022/12/26 12:40:37;;;;;;;7.95;1.40;;;;;;;;;;5048786;28;20048;-75
2022/12/26 12:43:48;;;;;;;4.75;1.13;;;;;;;;;;5054419;28;20044;-74
2022/12/26 12:46:43;;;;;;;6.20;1.15;;;;;;;;;;5056354;28;20483;-75
2022/12/26 12:49:28;;;;;;;3.97;1.35;;;;;;;;;;5060192;28;20431;-75
2022/12/26 12:52:36;;;;;;;3.50;1.52;;;;;;;;;;5068975;28;20048;-74
2022/12/26 12:55:23;;;;;;;6.30;1.20;;;;;;;;;;5068526;28;20040;-75
2022/12/26 12:58:01;;;;;;;7.50;1.25;;;;;;;;;;5069270;28;20053;-74
2022/12/26 13:01:07;;;;;;;8.30;1.88;;;;;;;;;;5069210;28;20048;-78
2022/12/26 13:03:45;;;;;;;6.50;0.82;;;;;;;;;;5067960;28;20045;-76
2022/12/26 13:06:39;;;;;;;8.85;1.27;;;;;;;;;;5074341;28;20403;-75
2022/12/26 13:09:24;;;;;;;7.65;1.30;;;;;;;;;;5109891;28;20051;-76
2022/12/26 13:12:20;;;;;;;6.57;1.60;;;;;;;;;;5109429;28;20502;-76
2022/12/26 13:15:21;;;;;;;11.50;1.55;;;;;;;;;;5101998;28;20055;-78
2022/12/26 13:18:04;;;;;;;6.10;1.23;;;;;;;;;;5084197;28;20510;-76
2022/12/26 13:20:52;;;;;;;3.30;1.10;;;;;;;;;;5090301;28;20047;-76
2022/12/26 13:27:02;;;;;;;4.15;1.30;;;;;;;;;;5109187;28;20048;-75
2022/12/26 13:29:39;;;;;;;3.05;0.80;;;;;;;;;;5065545;28;20537;-76
2022/12/26 13:32:30;;;;;;;2.40;1.10;;;;;;;;;;5110192;28;20128;-74
2022/12/26 13:35:03;;;;;;;2.55;1.20;;;;;;;;;;5089519;28;20063;-75
2022/12/26 13:37:38;;;;;;;2.45;0.90;;;;;;;;;;5108539;28;20078;-75
2022/12/26 13:40:13;;;;;;;2.15;1.10;;;;;;;;;;5108903;28;20044;-76
2022/12/26 13:46:45;;;;;;;1.27;0.50;;;;;;;;;;5097359;28;20047;-77
2022/12/26 13:49:35;;;;;;;1.10;0.90;;;;;;;;;;5099045;28;20043;-76
2022/12/26 13:52:18;;;;;;;2.00;1.08;;;;;;;;;;5097780;28;20036;-76
2022/12/26 13:54:49;;;;;;;1.45;0.93;;;;;;;;;;5098238;28;20040;-76
2022/12/26 13:57:46;;;;;;;1.17;0.80;;;;;;;;;;5096909;28;20059;-76
2022/12/26 14:00:21;;;;;;;3.70;0.60;;;;;;;;;;5108228;28;20048;-77
2022/12/26 14:03:00;;;;;;;;;;;;;;;;;;5108766;28;20047;-76
2022/12/26 14:05:57;;;;;;;0.95;0.60;;;;;;;;;;5107653;28;19924;-76
2022/12/26 14:09:03;;;;;;;0.68;0.50;;;;;;;;;;5107699;28;20402;-75
2022/12/26 14:11:56;;;;;;;1.17;0.65;;;;;;;;;;5095434;28;20058;-76
2022/12/26 14:14:45;;;;;;;1.50;0.60;;;;;;;;;;5108076;28;20044;-76
2022/12/26 14:18:03;;;;;;;1.23;1.00;;;;;;;;;;5108354;28;20059;-76
2022/12/26 14:20:35;;;;;;;0.57;0.40;;;;;;;;;;5091391;28;20046;-77
2022/12/26 14:23:10;;;;;;;2.90;0.88;;;;;;;;;;5107033;28;20051;-76
2022/12/26 14:26:01;;;;;;;2.28;0.93;;;;;;;;;;5108163;28;20039;-76
2022/12/26 14:28:56;;;;;;;2.95;0.70;;;;;;;;;;5107271;28;20039;-77
2022/12/26 14:31:34;;;;;;;0.80;0.50;;;;;;;;;;5107624;28;20066;-75
2022/12/26 14:34:26;;;;;;;1.88;0.60;;;;;;;;;;5107983;28;20055;-76
2022/12/26 14:37:31;;;;;;;1.45;0.60;;;;;;;;;;5090526;28;20056;-76
2022/12/26 14:40:29;;;;;;;2.40;0.82;;;;;;;;;;5106128;28;20494;-75
2022/12/26 14:43:20;;;;;;;3.30;0.90;;;;;;;;;;5105206;28;20035;-76
2022/12/26 14:45:53;;;;;;;1.75;0.68;;;;;;;;;;5107120;28;20414;-75
2022/12/26 14:48:27;;;;;;;2.08;0.70;;;;;;;;;;5106494;28;20047;-76
2022/12/26 14:51:03;;;;;;;1.40;0.77;;;;;;;;;;5088707;28;20422;-75
2022/12/26 14:54:36;;;;;;;2.55;0.90;;;;;;;;;;5107052;28;20043;-76
2022/12/26 14:57:45;;;;;;;1.83;0.75;;;;;;;;;;5095197;28;20056;-77
2022/12/26 15:00:22;;;;;;;1.48;0.52;;;;;;;;;;5068623;28;20062;-76
2022/12/26 15:03:15;;;;;;;0.98;0.63;;;;;;;;;;5107208;28;20750;-76
2022/12/26 15:05:47;;;;;;;2.78;0.47;;;;;;;;;;5107574;28;20052;-76
2022/12/26 15:08:40;;;;;;;0.93;0.38;;;;;;;;;;5107231;28;20051;-79
2022/12/26 15:11:31;;;;;;;2.38;0.90;;;;;;;;;;5107334;28;20391;-76
2022/12/26 15:14:06;;;;;;;3.72;0.80;;;;;;;;;;5107536;28;20055;-77
2022/12/26 15:17:10;;;;;;;2.47;0.90;;;;;;;;;;5106362;28;20048;-76
2022/12/26 15:19:59;;;;;;;1.90;0.65;;;;;;;;;;5107200;28;20071;-76
2022/12/26 15:22:48;;;;;;;1.60;0.57;;;;;;;;;;5106777;28;20048;-76
2022/12/26 15:25:33;;;;;;;2.13;0.70;;;;;;;;;;5106803;28;20047;-76
2022/12/26 15:28:36;;;;;;;2.45;0.80;;;;;;;;;;5089606;28;20046;-77
2022/12/26 15:31:18;;;;;;;1.55;0.70;;;;;;;;;;5106687;28;20054;-76
2022/12/26 15:34:07;;;;;;;1.58;0.70;;;;;;;;;;5106849;28;20050;-76
2022/12/26 15:36:55;;;;;;;1.30;0.80;;;;;;;;;;5107037;28;20051;-76
2022/12/26 15:39:41;;;;;;;4.65;0.90;;;;;;;;;;5106210;28;20452;-77
2022/12/26 15:42:15;;;;;;;2.35;1.10;;;;;;;;;;5106298;28;20043;-77
2022/12/26 15:45:21;;;;;;;2.25;0.80;;;;;;;;;;5105709;28;20047;-73
2022/12/26 15:48:32;;;;;;;4.38;1.27;;;;;;;;;;5059501;28;20056;-73
2022/12/26 15:51:22;;;;;;;2.50;1.13;;;;;;;;;;5063733;28;20414;-76
2022/12/26 15:54:22;;;;;;;2.15;0.80;;;;;;;;;;5056240;28;20048;-75
2022/12/26 15:57:02;;;;;;;;;;;;;;;;;;5071380;28;20052;-76
2022/12/26 16:00:09;;;;;;;3.22;0.70;;;;;;;;;;5086390;28;19927;-75
2022/12/26 16:03:06;;;;;;;7.15;0.95;;;;;;;;;;5085372;28;20059;-75
2022/12/26 16:05:49;;;;;;;5.72;1.10;;;;;;;;;;5068306;28;20052;-78
2022/12/26 16:08:41;;;;;;;3.60;0.90;;;;;;;;;;5086104;28;20406;-77
2022/12/26 16:11:20;;;;;;;3.70;1.30;;;;;;;;;;5086001;28;20059;-74
2022/12/26 16:13:54;;;;;;;1.98;0.82;;;;;;;;;;5086217;28;20040;-75
2022/12/26 16:16:37;;;;;;;4.38;1.08;;;;;;;;;;5086355;28;20048;-75
2022/12/26 16:19:20;;;;;;;5.38;0.90;;;;;;;;;;5085792;28;20059;-76
2022/12/26 16:24:52;;;;;;;2.33;0.60;;;;;;;;;;5086092;28;20056;-77
2022/12/26 16:27:24;;;;;;;2.70;0.82;;;;;;;;;;5086241;28;20044;-77
2022/12/26 16:30:05;;;;;;;3.50;0.95;;;;;;;;;;5089959;28;20063;-75
2022/12/26 16:32:42;;;;;;;2.22;0.95;;;;;;;;;;5089390;28;20059;-75
2022/12/26 16:35:25;;;;;;;4.20;1.20;;;;;;;;;;5090041;28;20773;-76
2022/12/26 16:37:59;;;;;;;1.17;0.70;;;;;;;;;;5090145;28;20403;-76
2022/12/26 16:40:31;;;;;;;1.45;0.60;;;;;;;;;;5089183;28;20051;-76
2022/12/26 16:43:03;;;;;;;1.77;0.70;;;;;;;;;;5089701;28;20048;-76
2022/12/26 16:45:36;;;;;;;4.38;0.70;;;;;;;;;;5089054;28;20055;-80
2022/12/26 16:48:08;;;;;;;1.52;0.70;;;;;;;;;;5089373;28;20047;-76
2022/12/26 16:50:51;;;;;;;3.22;0.55;;;;;;;;;;5101722;28;20047;-76
2022/12/26 16:53:43;;;;;;;3.22;0.70;;;;;;;;;;5109807;28;20432;-76
2022/12/26 16:56:30;;;;;;;3.38;0.80;;;;;;;;;;5090997;28;20133;-76
2022/12/26 16:59:20;;;;;;;;;;;;;;;;;;5109859;28;20031;-82
2022/12/26 17:01:54;;;;;;;2.13;0.80;;;;;;;;;;5110030;28;19920;-76
2022/12/26 17:04:28;;;;;;;1.27;0.63;;;;;;;;;;5109704;28;20044;-78
2022/12/26 17:07:05;;;;;;;4.63;0.93;;;;;;;;;;5109409;28;20044;-76
2022/12/26 17:09:45;;;;;;;2.03;0.80;;;;;;;;;;5109392;28;20058;-76
2022/12/26 17:12:24;;;;;;;3.10;0.80;;;;;;;;;;5109014;28;20085;-77
2022/12/26 17:14:57;;;;;;;3.28;0.95;;;;;;;;;;5109175;28;20052;-75
2022/12/26 17:17:34;;;;;;;2.72;0.80;;;;;;;;;;5109014;28;20046;-76
2022/12/26 17:20:23;;;;;;;3.25;0.93;;;;;;;;;;5108742;28;20548;-75
2022/12/26 17:22:56;;;;;;;2.90;0.90;;;;;;;;;;5109042;28;20051;-76
2022/12/26 17:25:30;;;;;;;3.42;0.75;;;;;;;;;;5109484;28;20509;-78
2022/12/26 17:28:11;;;;;;;0.73;0.70;;;;;;;;;;5108728;28;20047;-77
2022/12/26 17:30:46;;;;;;;2.55;0.82;;;;;;;;;;5109198;28;20050;-78
2022/12/26 17:33:26;;;;;;;4.70;1.00;;;;;;;;;;5108619;28;20044;-77
2022/12/26 17:36:06;;;;;;;3.45;1.25;;;;;;;;;;5089648;28;20501;-77
2022/12/26 17:39:20;;;;;;;2.92;0.82;;;;;;;;;;5093204;28;20055;-76
2022/12/26 17:41:59;;;;;;;7.43;0.82;;;;;;;;;;5109100;28;20039;-76
2022/12/26 17:44:40;;;;;;;2.45;0.90;;;;;;;;;;5108440;28;20410;-76
2022/12/26 17:47:25;;;;;;;4.72;1.02;;;;;;;;;;5108564;28;20482;-75
2022/12/26 17:49:56;;;;;;;2.00;0.90;;;;;;;;;;5109143;28;20047;-74
2022/12/26 17:52:28;;;;;;;3.55;0.77;;;;;;;;;;5108306;28;20040;-75
2022/12/26 17:55:13;;;;;;;7.45;1.10;;;;;;;;;;5108613;28;20044;-74
2022/12/26 17:57:43;;;;;;;3.70;0.60;;;;;;;;;;5108585;28;20047;-75
2022/12/26 18:00:22;;;;;;;4.70;0.77;;;;;;;;;;5108227;28;20474;-76
2022/12/26 18:02:53;;;;;;;4.25;0.82;;;;;;;;;;5108135;28;20050;-76
2022/12/26 18:05:23;;;;;;;3.60;1.08;;;;;;;;;;5108078;28;20047;-74